Weather at Air Park South Airport

Public forecast

Using degrees Fahrenheit for public forecast. Weather courtesy of forecast.io.

Closest aviation weather report (METAR) to Air Park South Airport

Closest report is Springfield Branson National Airport, 13.4 nm (24.8 km) NNW. Retrieved 2021/10/16 04:52 UTC (54 minutes ago):

KSGF 160452Z 27006KT 10SM CLR 09/05 A3017 RMK AO2 SLP215 T00940050

Closest aviation forecast (TAF) to Air Park South Airport

Closest forecast is Springfield Branson National Airport, 13.4 nm (24.8 km) NNW. Retrieved 2021-10-16 00:22 UTC (5 hours ago):

TAF KSGF 152320Z 1600/1624 35011G20KT P6SM FEW060 FEW110 FM160100 32005KT P6SM SKC FM161700 32010G19KT P6SM SKC FM162200 32009KT P6SM SKC